createdAt,value
2017-03-22T08:02:28.681Z,90.11
2017-03-22T08:03:09.255Z,89.77
2017-03-22T08:03:49.833Z,90.15
2017-03-22T08:04:30.410Z,90.34
2017-03-22T08:05:10.987Z,90.34
2017-03-22T08:05:51.559Z,90.06
2017-03-22T08:06:32.135Z,90.25
2017-03-22T08:07:13.717Z,89.68
2017-03-22T08:07:54.283Z,89.49
2017-03-22T08:08:34.865Z,89.58
2017-03-22T08:09:15.435Z,89.58
2017-03-22T08:09:56.012Z,89.49
2017-03-22T08:10:36.563Z,89.68
2017-03-22T08:11:17.145Z,89.68
2017-03-22T08:11:57.724Z,89.58
2017-03-22T08:12:38.290Z,89.3
2017-03-22T08:13:18.847Z,89.11
2017-03-22T08:13:59.455Z,89.01
2017-03-22T08:14:42.029Z,89.2
2017-03-22T08:15:22.607Z,89.2
2017-03-22T08:16:03.175Z,89.01
2017-03-22T08:16:43.748Z,89.2
2017-03-22T08:17:24.339Z,88.82
2017-03-22T08:18:04.945Z,88.45
2017-03-22T08:18:45.524Z,88.64
2017-03-22T08:19:26.100Z,88.68
2017-03-22T08:20:06.699Z,88.49
2017-03-22T08:20:47.250Z,88.49
2017-03-22T08:21:27.834Z,88.68
2017-03-22T08:22:08.407Z,88.87
2017-03-22T08:22:48.959Z,89.06
2017-03-22T08:23:29.537Z,88.68
2017-03-22T08:24:10.108Z,88.3
2017-03-22T08:24:50.702Z,88.11
2017-03-22T08:25:31.263Z,88.02
2017-03-22T08:26:11.890Z,87.92
2017-03-22T08:26:52.470Z,88.02
2017-03-22T08:27:33.040Z,87.64
2017-03-22T08:28:13.622Z,87.83
2017-03-22T08:28:54.216Z,87.92
2017-03-22T08:29:35.791Z,87.26
2017-03-22T08:30:16.345Z,87.35
2017-03-22T08:30:58.916Z,87.35
2017-03-22T08:31:39.486Z,86.79
2017-03-22T08:32:20.062Z,87.16
2017-03-22T08:33:00.639Z,87.16
2017-03-22T08:33:41.224Z,87.02
2017-03-22T08:34:21.816Z,87.02
2017-03-22T08:35:02.377Z,87.12
2017-03-22T08:35:42.932Z,86.35
2017-03-22T08:36:24.528Z,86.35
2017-03-22T08:37:07.104Z,86.45
2017-03-22T08:37:48.717Z,86.55
2017-03-22T08:38:29.285Z,86.35
2017-03-22T08:39:11.849Z,85.97
2017-03-22T08:39:52.456Z,85.88
2017-03-22T08:40:33.029Z,85.88
2017-03-22T08:41:13.631Z,85.97
2017-03-22T08:41:54.228Z,85.69
2017-03-22T08:42:34.787Z,85.41
2017-03-22T08:43:15.357Z,85.31
2017-03-22T08:43:55.924Z,85.31
2017-03-22T08:44:37.498Z,85.13
2017-03-22T08:45:22.734Z,84.84
2017-03-22T08:46:03.298Z,85.31
2017-03-22T08:46:43.892Z,85.13
2017-03-22T08:47:24.471Z,84.88
2017-03-22T08:48:05.047Z,84.41
2017-03-22T08:48:45.663Z,84.5
2017-03-22T08:49:26.261Z,84.5
2017-03-22T08:50:07.879Z,84.31
2017-03-22T08:50:48.495Z,84.41
2017-03-22T08:51:29.111Z,84.22
2017-03-22T08:52:09.705Z,84.12
2017-03-22T08:52:55.302Z,84.22
2017-03-22T08:53:36.877Z,84.5
2017-03-22T08:54:17.447Z,83.55
2017-03-22T08:54:58.035Z,83.65
2017-03-22T08:55:38.660Z,83.74
2017-03-22T08:56:19.250Z,83.36
2017-03-22T08:56:59.832Z,83.27
2017-03-22T08:57:40.404Z,83.27
2017-03-22T08:58:21.996Z,83.36
2017-03-22T08:59:02.577Z,83.17
2017-03-22T08:59:43.136Z,82.93
2017-03-22T09:00:23.822Z,82.74
2017-03-22T09:01:05.443Z,82.65
2017-03-22T09:01:47.013Z,82.27
2017-03-22T09:02:27.596Z,82.46
2017-03-22T09:03:08.212Z,82.36
2017-03-22T09:03:48.781Z,82.36
2017-03-22T09:04:29.357Z,82.46
2017-03-22T09:05:09.908Z,82.46
2017-03-22T09:05:50.477Z,81.98
2017-03-22T09:06:31.063Z,82.08
2017-03-22T09:07:12.624Z,81.88
2017-03-22T09:07:53.190Z,82.08
2017-03-22T09:08:33.766Z,82.08
2017-03-22T09:09:18.921Z,81.88
2017-03-22T09:09:59.490Z,81.98
2017-03-22T09:10:40.053Z,82.17
2017-03-22T09:11:20.624Z,81.98
2017-03-22T09:12:03.199Z,81.7
2017-03-22T09:12:43.822Z,81.79
2017-03-22T09:13:25.352Z,81.55
2017-03-22T09:14:07.945Z,81.55
2017-03-22T09:14:48.517Z,81.17
2017-03-22T09:15:29.140Z,81.26
2017-03-22T09:16:09.708Z,80.6
2017-03-22T09:16:51.280Z,80.88
2017-03-22T09:17:31.866Z,80.6
2017-03-22T09:18:12.425Z,80.6
2017-03-22T09:18:57.547Z,80.03
2017-03-22T09:19:42.916Z,80.32
2017-03-22T09:20:23.473Z,79.94
2017-03-22T09:21:04.082Z,79.74
2017-03-22T09:21:45.660Z,79.36
2017-03-22T09:22:26.228Z,79.08
2017-03-22T09:23:06.797Z,78.7
2017-03-22T09:23:47.354Z,78.89
2017-03-22T09:24:27.930Z,78.51
2017-03-22T09:25:08.495Z,78.51
2017-03-22T09:25:50.053Z,78.51
2017-03-22T09:26:30.643Z,78.03
2017-03-22T09:27:11.201Z,78.03
2017-03-22T09:27:53.782Z,77.84
2017-03-22T09:28:41.048Z,77.56
2017-03-22T09:29:26.420Z,77.28
2017-03-22T09:30:06.998Z,77.22
2017-03-22T09:30:47.593Z,77.41
2017-03-22T09:31:28.197Z,77.12
2017-03-22T09:32:09.824Z,76.75
2017-03-22T09:32:50.385Z,76.27
2017-03-22T09:33:35.742Z,76.75
2017-03-22T09:34:16.336Z,76.65
2017-03-22T09:34:56.921Z,76.08
2017-03-22T09:35:37.516Z,76.08
2017-03-22T09:36:18.083Z,75.89
2017-03-22T09:36:58.652Z,75.42
2017-03-22T09:37:39.206Z,75.51
2017-03-22T09:38:19.805Z,75.23
2017-03-22T09:39:01.394Z,75.51
2017-03-22T09:39:42.981Z,75.04
2017-03-22T09:40:23.577Z,74.94
2017-03-22T09:41:05.160Z,74.94
2017-03-22T09:41:45.719Z,74.37
2017-03-22T09:42:26.300Z,74.66
2017-03-22T09:43:06.871Z,74.08
2017-03-22T09:43:49.460Z,74.08
2017-03-22T09:44:30.159Z,73.9
2017-03-22T09:45:10.731Z,73.71
2017-03-22T09:45:51.298Z,73.61
2017-03-22T09:46:31.859Z,72.89
2017-03-22T09:47:12.442Z,72.38
2017-03-22T09:47:53.965Z,72.22
2017-03-22T09:48:35.340Z,71.56
2017-03-22T09:49:16.301Z,70.89
2017-03-22T09:49:58.455Z,70.42
2017-03-22T09:50:40.383Z,69.46
2017-03-22T09:51:21.721Z,69.27
2017-03-22T09:52:07.240Z,68.8
2017-03-22T09:52:47.817Z,68.23
2017-03-22T09:53:29.422Z,67.76
2017-03-22T09:54:09.964Z,67.28
2017-03-22T09:54:56.237Z,66.9
2017-03-22T09:55:36.847Z,67.19
2017-03-22T09:56:17.432Z,67.28
2017-03-22T09:56:58.046Z,67
2017-03-22T09:57:38.615Z,67.09
2017-03-22T09:58:21.215Z,67.19
2017-03-22T09:59:01.776Z,66.8
2017-03-22T09:59:44.381Z,66.61
2017-03-22T10:00:26.014Z,66.9
2017-03-22T10:01:06.622Z,66.65
2017-03-22T10:01:47.262Z,66.65
2017-03-22T10:02:29.860Z,66.08
2017-03-22T10:03:10.525Z,66.27
2017-03-22T10:03:51.202Z,66.27
2017-03-22T10:04:32.843Z,66.08
2017-03-22T10:05:13.503Z,65.8
2017-03-22T10:05:54.158Z,65.89
2017-03-22T10:06:36.237Z,65.22
2017-03-22T10:07:17.408Z,65.13
2017-03-22T10:07:58.637Z,65.41
2017-03-22T10:08:39.618Z,64.84
2017-03-22T10:09:20.857Z,64.56
2017-03-22T10:10:01.995Z,64.78
2017-03-22T10:10:43.175Z,64.11
2017-03-22T10:11:23.828Z,64.4
2017-03-22T10:12:04.420Z,64.21
2017-03-22T10:12:45.004Z,64.21
2017-03-22T10:13:25.633Z,63.92
2017-03-22T10:14:06.286Z,64.02
2017-03-22T10:14:46.939Z,63.83
2017-03-22T10:15:27.591Z,63.64
2017-03-22T10:16:08.265Z,63.64
2017-03-22T10:16:48.901Z,63.92
2017-03-22T10:17:29.594Z,63.73
2017-03-22T10:18:10.229Z,63.64
2017-03-22T10:18:50.916Z,63.83
2017-03-22T10:19:31.609Z,63.64
2017-03-22T10:20:12.173Z,63.35
2017-03-22T10:20:52.817Z,63.26
2017-03-22T10:21:33.431Z,62.97
2017-03-22T10:22:14.138Z,62.78
2017-03-22T10:22:54.704Z,62.59
2017-03-22T10:23:35.359Z,62.3
2017-03-22T10:24:16.013Z,62.05
2017-03-22T10:24:56.639Z,61.48
2017-03-22T10:25:37.339Z,61.19
2017-03-22T10:26:17.952Z,61
2017-03-22T10:26:59.620Z,60.44
2017-03-22T10:27:40.269Z,60.34
2017-03-22T10:28:21.792Z,60.34
2017-03-22T10:29:02.719Z,60.15
2017-03-22T10:29:43.819Z,60.15
2017-03-22T10:30:25.851Z,60.44
2017-03-22T10:31:07.483Z,60.34
2017-03-22T10:31:49.962Z,60.44
2017-03-22T10:32:31.475Z,60.63
2017-03-22T10:33:11.925Z,60.63
2017-03-22T10:33:53.097Z,60.44
2017-03-22T10:34:34.699Z,60.44
2017-03-22T10:35:15.642Z,60.24
2017-03-22T10:35:56.212Z,60.24
2017-03-22T10:36:36.851Z,60.34
2017-03-22T10:37:17.457Z,60.24
2017-03-22T10:37:58.039Z,60.34
2017-03-22T10:38:38.691Z,60.53
2017-03-22T10:39:19.855Z,60.34
2017-03-22T10:40:01.150Z,60.15
2017-03-22T10:40:42.724Z,60.44
2017-03-22T10:41:23.685Z,60.34
2017-03-22T10:42:04.953Z,60.44
2017-03-22T10:42:46.400Z,60.34
2017-03-22T10:43:28.135Z,60.53
2017-03-22T10:44:09.938Z,60.72
2017-03-22T10:44:51.610Z,61
2017-03-22T10:45:33.280Z,61.1
2017-03-22T10:46:14.676Z,61.13
2017-03-22T10:46:56.555Z,61.1
2017-03-22T10:47:42.289Z,60.85
2017-03-22T10:48:27.601Z,61.04
2017-03-22T10:49:08.744Z,60.94
2017-03-22T10:49:50.867Z,60.46
2017-03-22T10:50:33.513Z,60.56
2017-03-22T10:51:14.334Z,60.37
2017-03-22T10:51:54.878Z,60.37
2017-03-22T10:52:36.541Z,60.27
2017-03-22T10:53:18.204Z,60.66
2017-03-22T10:53:58.806Z,60.27
2017-03-22T10:54:39.431Z,60.27
2017-03-22T10:55:20.086Z,60.37
2017-03-22T10:56:00.728Z,60.27
2017-03-22T10:56:41.390Z,60.27
2017-03-22T10:57:23.057Z,60.08
2017-03-22T10:58:03.747Z,59.89
2017-03-22T10:58:45.438Z,60.27
2017-03-22T10:59:26.028Z,59.7
2017-03-22T11:00:06.607Z,59.74
2017-03-22T11:00:47.259Z,59.54
2017-03-22T11:01:27.837Z,59.26
2017-03-22T11:02:08.432Z,58.97
2017-03-22T11:02:49.035Z,58.69
2017-03-22T11:03:29.661Z,58.4
2017-03-22T11:04:10.317Z,58.02
2017-03-22T11:04:50.965Z,57.92
2017-03-22T11:05:31.646Z,57.92
2017-03-22T11:06:13.329Z,57.82
2017-03-22T11:06:53.933Z,57.73
2017-03-22T11:07:36.093Z,58.21
2017-03-22T11:08:16.702Z,57.82
2017-03-22T11:08:57.345Z,58.02
2017-03-22T11:09:38.002Z,57.82
2017-03-22T11:10:18.671Z,57.54
2017-03-22T11:10:59.303Z,57.73
2017-03-22T11:11:40.203Z,57.64
2017-03-22T11:12:20.834Z,57.82
2017-03-22T11:13:01.459Z,57.73
2017-03-22T11:13:42.123Z,57.82
2017-03-22T11:14:22.766Z,57.82
2017-03-22T11:15:03.428Z,57.92
2017-03-22T11:15:44.067Z,57.73
2017-03-22T11:16:24.747Z,57.64
2017-03-22T11:17:05.372Z,57.82
2017-03-22T11:17:46.065Z,57.82
2017-03-22T11:18:26.717Z,57.82
2017-03-22T11:19:07.382Z,58.02
2017-03-22T11:19:48.069Z,57.82
2017-03-22T11:20:28.637Z,57.64
2017-03-22T11:21:09.319Z,57.64
2017-03-22T11:21:50.007Z,57.64
2017-03-22T11:22:31.715Z,58.02
2017-03-22T11:23:12.283Z,58.02
2017-03-22T11:23:52.942Z,58.3
2017-03-22T11:24:33.615Z,58.4
2017-03-22T11:25:14.214Z,58.4
2017-03-22T11:25:54.819Z,58.5
2017-03-22T11:26:35.469Z,58.11
2017-03-22T11:27:16.140Z,58.69
2017-03-22T11:27:56.741Z,58.97
2017-03-22T11:28:37.457Z,58.78
2017-03-22T11:29:18.060Z,59.16
2017-03-22T11:29:58.652Z,59.45
2017-03-22T11:30:39.347Z,59.26
2017-03-22T11:31:19.933Z,59.45
2017-03-22T11:32:00.558Z,59.26
2017-03-22T11:32:41.163Z,59.64
2017-03-22T11:33:21.754Z,60.21
2017-03-22T11:34:02.400Z,59.45
2017-03-22T11:34:43.048Z,59.83
2017-03-22T11:35:23.710Z,60.02
2017-03-22T11:36:04.362Z,60.02
2017-03-22T11:36:45.008Z,60.3
2017-03-22T11:37:26.694Z,59.92
2017-03-22T11:38:07.346Z,59.74
2017-03-22T11:38:48.015Z,59.45
2017-03-22T11:39:28.660Z,59.35
2017-03-22T11:40:09.323Z,59.35
2017-03-22T11:40:49.960Z,59.45
2017-03-22T11:41:30.611Z,59.16
2017-03-22T11:42:11.265Z,58.78
2017-03-22T11:42:51.837Z,59.06
2017-03-22T11:43:32.421Z,58.52
2017-03-22T11:44:13.027Z,57.67
2017-03-22T11:44:53.576Z,57.95
2017-03-22T11:45:34.141Z,58.14
2017-03-22T11:46:14.713Z,57.95
2017-03-22T11:46:55.306Z,57.7
2017-03-22T11:47:35.872Z,57.98
2017-03-22T11:48:16.446Z,57.6
2017-03-22T11:48:58.017Z,57.12
2017-03-22T11:49:38.597Z,56.84
2017-03-22T11:50:19.183Z,56.93
2017-03-22T11:50:59.758Z,56.48
2017-03-22T11:51:40.388Z,56.58
2017-03-22T11:52:20.976Z,55.72
2017-03-22T11:53:01.567Z,55.62
2017-03-22T11:53:42.149Z,55.18
2017-03-22T11:54:22.704Z,54.99
2017-03-22T11:55:03.284Z,55.08
2017-03-22T11:55:43.855Z,54.7
2017-03-22T11:56:24.446Z,54.41
2017-03-22T11:57:05.018Z,54.44
2017-03-22T11:57:45.585Z,54.44
2017-03-22T11:58:26.160Z,54.15
2017-03-22T11:59:06.740Z,54.25
2017-03-22T11:59:47.347Z,54.15
2017-03-22T12:00:27.923Z,54.44
2017-03-22T12:01:08.495Z,53.86
2017-03-22T12:01:49.107Z,53.67
2017-03-22T12:02:29.685Z,53.58
2017-03-22T12:03:10.254Z,53.39
2017-03-22T12:03:51.225Z,53.1
2017-03-22T12:04:31.799Z,52.91
2017-03-22T12:05:12.388Z,53.13
2017-03-22T12:05:52.975Z,53
2017-03-22T12:06:33.523Z,52.91
2017-03-22T12:07:14.112Z,53.13
2017-03-22T12:07:54.664Z,53.13
2017-03-22T12:08:35.241Z,53.13
2017-03-22T12:09:15.807Z,52.75
2017-03-22T12:09:57.471Z,52.62
2017-03-22T12:10:38.044Z,52.46
2017-03-22T12:11:18.619Z,52.34
2017-03-22T12:11:59.204Z,52.53
2017-03-22T12:12:39.790Z,52.53
2017-03-22T12:13:20.367Z,52.24
2017-03-22T12:14:00.933Z,52.24
2017-03-22T12:14:41.511Z,51.86
2017-03-22T12:15:22.099Z,52.24
2017-03-22T12:16:02.653Z,52.15
2017-03-22T12:16:43.223Z,52.15
2017-03-22T12:17:23.793Z,52.05
2017-03-22T12:18:04.362Z,52.15
2017-03-22T12:18:44.930Z,52.05
2017-03-22T12:19:25.522Z,51.76
2017-03-22T12:20:06.097Z,51.76
2017-03-22T12:20:46.690Z,51.57
2017-03-22T12:21:27.297Z,51.29
2017-03-22T12:22:07.869Z,51.57
2017-03-22T12:22:49.441Z,51
2017-03-22T12:23:30.013Z,50.74
2017-03-22T12:24:10.603Z,50.84
2017-03-22T12:24:51.167Z,50.93
2017-03-22T12:25:31.770Z,50.93
2017-03-22T12:26:12.352Z,51.03
2017-03-22T12:26:52.915Z,50.74
2017-03-22T12:27:33.508Z,50.93
2017-03-22T12:28:15.087Z,50.74
2017-03-22T12:28:55.679Z,50.64
2017-03-22T12:29:36.267Z,50.55
2017-03-22T12:30:16.843Z,50.45
2017-03-22T12:30:57.435Z,50.48
2017-03-22T12:31:38.028Z,50.16
2017-03-22T12:32:18.602Z,49.71
2017-03-22T12:32:59.173Z,50
2017-03-22T12:33:39.736Z,50
2017-03-22T12:34:20.327Z,50.38
2017-03-22T12:35:00.900Z,49.9
2017-03-22T12:35:41.465Z,50.48
2017-03-22T12:36:22.043Z,50.29
2017-03-22T12:37:02.616Z,49.9
2017-03-22T12:37:43.209Z,50
2017-03-22T12:38:23.794Z,49.71
2017-03-22T12:39:04.385Z,49.52
2017-03-22T12:39:46.002Z,49.62
2017-03-22T12:40:26.597Z,49.14
2017-03-22T12:41:07.164Z,49.14
2017-03-22T12:41:48.749Z,49.43
2017-03-22T12:42:30.418Z,49.52
2017-03-22T12:43:10.990Z,49.04
2017-03-22T12:43:51.590Z,48.85
2017-03-22T12:44:32.159Z,48.85
2017-03-22T12:45:12.730Z,48.75
2017-03-22T12:45:53.313Z,48.47
2017-03-22T12:46:33.895Z,47.89
2017-03-22T12:47:14.460Z,47.61
2017-03-22T12:47:55.058Z,47.52
2017-03-22T12:48:35.634Z,47.13
2017-03-22T12:49:16.186Z,46.87
2017-03-22T12:49:56.755Z,47.06
2017-03-22T12:50:37.348Z,47.06
2017-03-22T12:51:17.905Z,47.16
2017-03-22T12:51:58.492Z,46.3
2017-03-22T12:52:39.089Z,46.48
2017-03-22T12:53:19.668Z,46.48
2017-03-22T12:54:00.258Z,46.39
2017-03-22T12:54:40.833Z,46.1
2017-03-22T12:55:21.409Z,46.01
2017-03-22T12:56:01.969Z,46.1
2017-03-22T12:56:42.550Z,46.1
2017-03-22T12:57:23.139Z,46.1
2017-03-22T12:58:03.698Z,46.39
2017-03-22T12:58:44.375Z,46.3
2017-03-22T12:59:24.985Z,46.1
2017-03-22T13:00:05.542Z,46.3
2017-03-22T13:00:46.122Z,46.58
2017-03-22T13:01:26.728Z,46.77
2017-03-22T13:02:07.297Z,46.84
2017-03-22T13:02:47.869Z,46.94
2017-03-22T13:03:28.463Z,46.75
2017-03-22T13:04:09.046Z,47.42
2017-03-22T13:04:49.625Z,47.23
2017-03-22T13:05:30.240Z,47.52
2017-03-22T13:06:10.821Z,47.52
2017-03-22T13:06:51.415Z,47.8
2017-03-22T13:07:31.994Z,47.89
2017-03-22T13:08:12.555Z,47.99
2017-03-22T13:08:53.145Z,47.89
2017-03-22T13:09:33.839Z,47.71
2017-03-22T13:10:14.416Z,47.8
2017-03-22T13:10:55.060Z,47.52
2017-03-22T13:11:35.612Z,47.61
2017-03-22T13:12:16.189Z,47.03
2017-03-22T13:12:56.762Z,46.84
2017-03-22T13:13:37.362Z,47.06
2017-03-22T13:14:17.930Z,46.77
2017-03-22T13:14:58.506Z,47.06
2017-03-22T13:15:39.083Z,47.06
